sensor_id;sensor_type;location;lat;lon;timestamp;P1;durP1;ratioP1;P2;durP2;ratioP2
29218;SDS011;16421;50.202;7.852;2023-07-20T00:03:19;2.20;;;1.00;;
29218;SDS011;16421;50.202;7.852;2023-07-20T00:08:28;2.15;;;1.00;;
29218;SDS011;16421;50.202;7.852;2023-07-20T00:13:35;1.70;;;0.90;;
29218;SDS011;16421;50.202;7.852;2023-07-20T00:18:58;1.55;;;0.85;;
29218;SDS011;16421;50.202;7.852;2023-07-20T00:24:14;2.03;;;0.90;;
29218;SDS011;16421;50.202;7.852;2023-07-20T00:29:18;1.63;;;0.80;;
29218;SDS011;16421;50.202;7.852;2023-07-20T00:34:24;1.25;;;0.80;;
29218;SDS011;16421;50.202;7.852;2023-07-20T00:39:33;2.03;;;1.20;;
29218;SDS011;16421;50.202;7.852;2023-07-20T00:44:38;1.27;;;0.82;;
29218;SDS011;16421;50.202;7.852;2023-07-20T00:49:49;2.38;;;1.13;;
29218;SDS011;16421;50.202;7.852;2023-07-20T00:54:54;1.80;;;1.00;;
29218;SDS011;16421;50.202;7.852;2023-07-20T01:00:07;1.30;;;0.90;;
29218;SDS011;16421;50.202;7.852;2023-07-20T01:05:27;1.48;;;1.00;;
29218;SDS011;16421;50.202;7.852;2023-07-20T01:10:39;1.60;;;0.90;;
29218;SDS011;16421;50.202;7.852;2023-07-20T01:15:49;2.30;;;0.85;;
29218;SDS011;16421;50.202;7.852;2023-07-20T01:20:58;1.42;;;1.10;;
29218;SDS011;16421;50.202;7.852;2023-07-20T01:26:09;1.30;;;1.15;;
29218;SDS011;16421;50.202;7.852;2023-07-20T01:31:29;1.50;;;0.90;;
29218;SDS011;16421;50.202;7.852;2023-07-20T01:36:38;1.73;;;1.10;;
29218;SDS011;16421;50.202;7.852;2023-07-20T01:41:47;1.17;;;0.82;;
29218;SDS011;16421;50.202;7.852;2023-07-20T01:46:53;2.90;;;1.15;;
29218;SDS011;16421;50.202;7.852;2023-07-20T01:52:04;2.25;;;1.00;;
29218;SDS011;16421;50.202;7.852;2023-07-20T01:57:11;1.70;;;1.10;;
29218;SDS011;16421;50.202;7.852;2023-07-20T02:02:18;1.90;;;1.00;;
29218;SDS011;16421;50.202;7.852;2023-07-20T02:07:25;1.75;;;0.93;;
29218;SDS011;16421;50.202;7.852;2023-07-20T02:12:30;1.20;;;0.90;;
29218;SDS011;16421;50.202;7.852;2023-07-20T02:17:40;1.95;;;0.85;;
29218;SDS011;16421;50.202;7.852;2023-07-20T02:22:44;1.35;;;0.80;;
29218;SDS011;16421;50.202;7.852;2023-07-20T02:27:48;1.60;;;0.90;;
29218;SDS011;16421;50.202;7.852;2023-07-20T02:33:04;1.13;;;0.80;;
29218;SDS011;16421;50.202;7.852;2023-07-20T02:38:16;1.90;;;1.17;;
29218;SDS011;16421;50.202;7.852;2023-07-20T02:43:24;2.45;;;1.10;;
29218;SDS011;16421;50.202;7.852;2023-07-20T02:48:49;1.30;;;0.93;;
29218;SDS011;16421;50.202;7.852;2023-07-20T02:54:04;1.58;;;1.08;;
29218;SDS011;16421;50.202;7.852;2023-07-20T02:59:17;2.38;;;1.25;;
29218;SDS011;16421;50.202;7.852;2023-07-20T03:04:28;3.22;;;1.17;;
29218;SDS011;16421;50.202;7.852;2023-07-20T03:09:33;1.63;;;0.80;;
29218;SDS011;16421;50.202;7.852;2023-07-20T03:14:45;1.35;;;0.90;;
29218;SDS011;16421;50.202;7.852;2023-07-20T03:19:59;1.40;;;1.02;;
29218;SDS011;16421;50.202;7.852;2023-07-20T03:25:11;1.70;;;1.10;;
29218;SDS011;16421;50.202;7.852;2023-07-20T03:30:15;1.40;;;1.10;;
29218;SDS011;16421;50.202;7.852;2023-07-20T03:35:30;1.70;;;1.05;;
29218;SDS011;16421;50.202;7.852;2023-07-20T03:40:50;1.58;;;1.10;;
29218;SDS011;16421;50.202;7.852;2023-07-20T03:46:00;1.80;;;1.17;;
29218;SDS011;16421;50.202;7.852;2023-07-20T03:51:09;2.28;;;1.27;;
29218;SDS011;16421;50.202;7.852;2023-07-20T03:56:17;1.83;;;1.10;;
29218;SDS011;16421;50.202;7.852;2023-07-20T04:01:23;2.08;;;1.20;;
29218;SDS011;16421;50.202;7.852;2023-07-20T04:06:44;1.73;;;1.00;;
29218;SDS011;16421;50.202;7.852;2023-07-20T04:17:05;2.88;;;1.35;;
29218;SDS011;16421;50.202;7.852;2023-07-20T04:28:27;1.95;;;1.13;;
29218;SDS011;16421;50.202;7.852;2023-07-20T04:33:55;1.95;;;1.02;;
29218;SDS011;16421;50.202;7.852;2023-07-20T04:39:53;2.22;;;1.40;;
29218;SDS011;16421;50.202;7.852;2023-07-20T04:45:23;1.27;;;0.90;;
29218;SDS011;16421;50.202;7.852;2023-07-20T04:50:46;1.33;;;0.90;;
29218;SDS011;16421;50.202;7.852;2023-07-20T04:56:00;1.30;;;0.95;;
29218;SDS011;16421;50.202;7.852;2023-07-20T05:01:32;1.00;;;0.85;;
29218;SDS011;16421;50.202;7.852;2023-07-20T05:07:20;1.27;;;0.90;;
29218;SDS011;16421;50.202;7.852;2023-07-20T09:32:21;0.95;;;0.70;;
29218;SDS011;16421;50.202;7.852;2023-07-20T09:37:28;1.05;;;0.63;;
29218;SDS011;16421;50.202;7.852;2023-07-20T09:42:39;1.92;;;0.85;;
29218;SDS011;16421;50.202;7.852;2023-07-20T09:47:44;1.55;;;0.93;;
29218;SDS011;16421;50.202;7.852;2023-07-20T09:53:12;1.83;;;0.82;;
29218;SDS011;16421;50.202;7.852;2023-07-20T09:58:21;1.30;;;1.00;;
29218;SDS011;16421;50.202;7.852;2023-07-20T10:03:29;1.15;;;0.82;;
29218;SDS011;16421;50.202;7.852;2023-07-20T10:08:40;1.42;;;0.75;;
29218;SDS011;16421;50.202;7.852;2023-07-20T10:13:49;1.33;;;0.43;;
29218;SDS011;16421;50.202;7.852;2023-07-20T10:19:02;1.23;;;0.93;;
29218;SDS011;16421;50.202;7.852;2023-07-20T10:24:11;1.50;;;0.70;;
29218;SDS011;16421;50.202;7.852;2023-07-20T10:29:21;1.20;;;0.80;;
29218;SDS011;16421;50.202;7.852;2023-07-20T10:39:55;1.17;;;1.00;;
29218;SDS011;16421;50.202;7.852;2023-07-20T10:44:58;1.08;;;0.80;;
29218;SDS011;16421;50.202;7.852;2023-07-20T10:50:06;2.05;;;1.08;;
29218;SDS011;16421;50.202;7.852;2023-07-20T10:55:11;0.40;;;0.40;;
29218;SDS011;16421;50.202;7.852;2023-07-20T11:00:18;0.90;;;0.70;;
29218;SDS011;16421;50.202;7.852;2023-07-20T11:05:35;0.68;;;0.68;;
29218;SDS011;16421;50.202;7.852;2023-07-20T11:10:40;1.15;;;0.60;;
29218;SDS011;16421;50.202;7.852;2023-07-20T11:15:47;0.68;;;0.43;;
29218;SDS011;16421;50.202;7.852;2023-07-20T11:21:04;0.43;;;0.40;;
29218;SDS011;16421;50.202;7.852;2023-07-20T11:26:10;2.30;;;1.13;;
29218;SDS011;16421;50.202;7.852;2023-07-20T11:31:14;1.40;;;1.00;;
29218;SDS011;16421;50.202;7.852;2023-07-20T11:36:19;3.13;;;0.90;;
29218;SDS011;16421;50.202;7.852;2023-07-20T11:41:25;0.52;;;0.52;;
29218;SDS011;16421;50.202;7.852;2023-07-20T11:46:29;0.50;;;0.50;;
29218;SDS011;16421;50.202;7.852;2023-07-20T11:51:33;1.33;;;0.50;;
29218;SDS011;16421;50.202;7.852;2023-07-20T11:56:41;0.45;;;0.45;;
29218;SDS011;16421;50.202;7.852;2023-07-20T12:01:46;1.08;;;0.38;;
29218;SDS011;16421;50.202;7.852;2023-07-20T12:06:51;0.60;;;0.50;;
29218;SDS011;16421;50.202;7.852;2023-07-20T12:11:56;0.60;;;0.60;;
29218;SDS011;16421;50.202;7.852;2023-07-20T12:16:59;0.47;;;0.40;;
29218;SDS011;16421;50.202;7.852;2023-07-20T12:22:04;0.82;;;0.40;;
29218;SDS011;16421;50.202;7.852;2023-07-20T12:27:08;0.98;;;0.50;;
29218;SDS011;16421;50.202;7.852;2023-07-20T12:32:19;0.65;;;0.40;;
29218;SDS011;16421;50.202;7.852;2023-07-20T12:37:23;0.60;;;0.60;;
29218;SDS011;16421;50.202;7.852;2023-07-20T12:47:31;1.55;;;0.32;;
29218;SDS011;16421;50.202;7.852;2023-07-20T12:52:37;0.45;;;0.30;;
29218;SDS011;16421;50.202;7.852;2023-07-20T12:57:41;2.58;;;0.80;;
29218;SDS011;16421;50.202;7.852;2023-07-20T13:02:44;0.70;;;0.60;;
29218;SDS011;16421;50.202;7.852;2023-07-20T13:07:49;0.63;;;0.50;;
29218;SDS011;16421;50.202;7.852;2023-07-20T13:12:56;1.42;;;0.63;;
29218;SDS011;16421;50.202;7.852;2023-07-20T13:17:59;0.82;;;0.40;;
29218;SDS011;16421;50.202;7.852;2023-07-20T13:23:04;2.20;;;0.50;;
29218;SDS011;16421;50.202;7.852;2023-07-20T13:33:11;1.90;;;0.60;;
29218;SDS011;16421;50.202;7.852;2023-07-20T13:38:19;0.20;;;0.20;;
29218;SDS011;16421;50.202;7.852;2023-07-20T13:48:26;0.77;;;0.32;;
29218;SDS011;16421;50.202;7.852;2023-07-20T13:53:31;0.45;;;0.40;;
29218;SDS011;16421;50.202;7.852;2023-07-20T13:58:38;0.55;;;0.50;;
29218;SDS011;16421;50.202;7.852;2023-07-20T14:03:43;1.55;;;0.57;;
29218;SDS011;16421;50.202;7.852;2023-07-20T14:08:48;0.57;;;0.40;;
29218;SDS011;16421;50.202;7.852;2023-07-20T14:13:51;0.67;;;0.50;;
29218;SDS011;16421;50.202;7.852;2023-07-20T14:18:55;0.82;;;0.47;;
29218;SDS011;16421;50.202;7.852;2023-07-20T14:24:00;1.38;;;0.70;;
29218;SDS011;16421;50.202;7.852;2023-07-20T14:29:04;0.75;;;0.40;;
29218;SDS011;16421;50.202;7.852;2023-07-20T14:34:08;0.38;;;0.38;;
29218;SDS011;16421;50.202;7.852;2023-07-20T14:39:13;0.60;;;0.30;;
29218;SDS011;16421;50.202;7.852;2023-07-20T14:44:16;0.30;;;0.30;;
29218;SDS011;16421;50.202;7.852;2023-07-20T14:54:26;0.85;;;0.28;;
29218;SDS011;16421;50.202;7.852;2023-07-20T14:59:29;0.90;;;0.40;;
29218;SDS011;16421;50.202;7.852;2023-07-20T15:04:33;1.55;;;0.50;;
29218;SDS011;16421;50.202;7.852;2023-07-20T15:09:37;1.75;;;0.35;;
29218;SDS011;16421;50.202;7.852;2023-07-20T15:14:41;1.33;;;0.50;;
29218;SDS011;16421;50.202;7.852;2023-07-20T15:19:45;0.37;;;0.37;;
29218;SDS011;16421;50.202;7.852;2023-07-20T15:24:50;0.60;;;0.40;;
29218;SDS011;16421;50.202;7.852;2023-07-20T15:29:54;1.23;;;0.40;;
29218;SDS011;16421;50.202;7.852;2023-07-20T15:34:57;0.38;;;0.38;;
29218;SDS011;16421;50.202;7.852;2023-07-20T15:40:06;1.98;;;0.65;;
29218;SDS011;16421;50.202;7.852;2023-07-20T15:45:20;1.05;;;0.47;;
29218;SDS011;16421;50.202;7.852;2023-07-20T15:50:25;1.17;;;0.40;;
29218;SDS011;16421;50.202;7.852;2023-07-20T15:55:29;0.60;;;0.30;;
29218;SDS011;16421;50.202;7.852;2023-07-20T16:00:33;0.40;;;0.40;;
29218;SDS011;16421;50.202;7.852;2023-07-20T16:05:36;1.15;;;0.40;;
29218;SDS011;16421;50.202;7.852;2023-07-20T16:10:41;0.30;;;0.30;;
29218;SDS011;16421;50.202;7.852;2023-07-20T16:15:44;0.80;;;0.30;;
29218;SDS011;16421;50.202;7.852;2023-07-20T16:20:51;0.50;;;0.30;;
29218;SDS011;16421;50.202;7.852;2023-07-20T16:25:55;1.40;;;0.20;;
29218;SDS011;16421;50.202;7.852;2023-07-20T16:30:59;0.30;;;0.30;;
29218;SDS011;16421;50.202;7.852;2023-07-20T16:36:02;0.40;;;0.30;;
29218;SDS011;16421;50.202;7.852;2023-07-20T16:41:11;0.40;;;0.40;;
29218;SDS011;16421;50.202;7.852;2023-07-20T16:46:15;0.60;;;0.47;;
29218;SDS011;16421;50.202;7.852;2023-07-20T16:51:21;0.47;;;0.30;;
29218;SDS011;16421;50.202;7.852;2023-07-20T16:56:26;0.43;;;0.40;;
29218;SDS011;16421;50.202;7.852;2023-07-20T17:01:29;1.00;;;0.30;;
29218;SDS011;16421;50.202;7.852;2023-07-20T17:06:34;0.30;;;0.30;;
29218;SDS011;16421;50.202;7.852;2023-07-20T17:11:40;0.98;;;0.47;;
29218;SDS011;16421;50.202;7.852;2023-07-20T17:16:44;0.40;;;0.30;;
29218;SDS011;16421;50.202;7.852;2023-07-20T17:21:48;0.30;;;0.30;;
29218;SDS011;16421;50.202;7.852;2023-07-20T17:26:53;0.68;;;0.30;;
29218;SDS011;16421;50.202;7.852;2023-07-20T17:31:59;0.50;;;0.40;;
29218;SDS011;16421;50.202;7.852;2023-07-20T17:37:03;1.02;;;0.40;;
29218;SDS011;16421;50.202;7.852;2023-07-20T17:42:11;0.68;;;0.30;;
29218;SDS011;16421;50.202;7.852;2023-07-20T17:47:17;0.75;;;0.40;;
29218;SDS011;16421;50.202;7.852;2023-07-20T17:52:21;0.28;;;0.28;;
29218;SDS011;16421;50.202;7.852;2023-07-20T17:57:26;0.20;;;0.20;;
29218;SDS011;16421;50.202;7.852;2023-07-20T18:02:30;0.65;;;0.40;;
29218;SDS011;16421;50.202;7.852;2023-07-20T18:07:33;0.30;;;0.30;;
29218;SDS011;16421;50.202;7.852;2023-07-20T18:12:38;0.68;;;0.50;;
29218;SDS011;16421;50.202;7.852;2023-07-20T18:17:42;0.20;;;0.20;;
29218;SDS011;16421;50.202;7.852;2023-07-20T18:22:45;0.82;;;0.30;;
29218;SDS011;16421;50.202;7.852;2023-07-20T18:27:50;0.50;;;0.50;;
29218;SDS011;16421;50.202;7.852;2023-07-20T18:32:53;0.68;;;0.30;;
29218;SDS011;16421;50.202;7.852;2023-07-20T18:37:57;1.00;;;0.40;;
29218;SDS011;16421;50.202;7.852;2023-07-20T18:43:01;0.80;;;0.25;;
29218;SDS011;16421;50.202;7.852;2023-07-20T18:48:05;1.83;;;0.98;;
29218;SDS011;16421;50.202;7.852;2023-07-20T18:53:08;2.03;;;0.25;;
29218;SDS011;16421;50.202;7.852;2023-07-20T18:58:13;0.80;;;0.40;;
29218;SDS011;16421;50.202;7.852;2023-07-20T19:03:16;0.60;;;0.40;;
29218;SDS011;16421;50.202;7.852;2023-07-20T19:08:20;0.47;;;0.40;;
29218;SDS011;16421;50.202;7.852;2023-07-20T19:13:24;0.73;;;0.38;;
29218;SDS011;16421;50.202;7.852;2023-07-20T19:18:28;0.20;;;0.20;;
29218;SDS011;16421;50.202;7.852;2023-07-20T19:23:32;0.38;;;0.30;;
29218;SDS011;16421;50.202;7.852;2023-07-20T19:28:36;0.40;;;0.40;;
29218;SDS011;16421;50.202;7.852;2023-07-20T19:33:40;0.73;;;0.40;;
29218;SDS011;16421;50.202;7.852;2023-07-20T19:38:44;1.45;;;0.30;;
29218;SDS011;16421;50.202;7.852;2023-07-20T19:43:48;0.50;;;0.50;;
29218;SDS011;16421;50.202;7.852;2023-07-20T19:48:52;2.20;;;0.50;;
29218;SDS011;16421;50.202;7.852;2023-07-20T19:53:55;0.93;;;0.43;;
29218;SDS011;16421;50.202;7.852;2023-07-20T19:59:03;0.50;;;0.50;;
29218;SDS011;16421;50.202;7.852;2023-07-20T20:04:07;2.05;;;0.80;;
29218;SDS011;16421;50.202;7.852;2023-07-20T20:09:13;0.75;;;0.60;;
29218;SDS011;16421;50.202;7.852;2023-07-20T20:14:18;0.68;;;0.50;;
29218;SDS011;16421;50.202;7.852;2023-07-20T20:19:22;0.70;;;0.40;;
29218;SDS011;16421;50.202;7.852;2023-07-20T20:24:25;1.10;;;0.60;;
29218;SDS011;16421;50.202;7.852;2023-07-20T20:29:30;0.30;;;0.30;;
29218;SDS011;16421;50.202;7.852;2023-07-20T20:34:33;0.95;;;0.63;;
29218;SDS011;16421;50.202;7.852;2023-07-20T20:39:37;0.50;;;0.50;;
29218;SDS011;16421;50.202;7.852;2023-07-20T20:44:41;0.45;;;0.43;;
29218;SDS011;16421;50.202;7.852;2023-07-20T20:49:45;0.73;;;0.50;;
29218;SDS011;16421;50.202;7.852;2023-07-20T20:54:48;0.60;;;0.50;;
29218;SDS011;16421;50.202;7.852;2023-07-20T20:59:56;0.60;;;0.40;;
29218;SDS011;16421;50.202;7.852;2023-07-20T21:05:00;0.50;;;0.50;;
29218;SDS011;16421;50.202;7.852;2023-07-20T21:10:04;0.73;;;0.50;;
29218;SDS011;16421;50.202;7.852;2023-07-20T21:15:10;1.05;;;0.40;;
29218;SDS011;16421;50.202;7.852;2023-07-20T21:20:13;2.30;;;0.70;;
29218;SDS011;16421;50.202;7.852;2023-07-20T21:25:17;1.45;;;0.60;;
29218;SDS011;16421;50.202;7.852;2023-07-20T21:30:22;0.70;;;0.55;;
29218;SDS011;16421;50.202;7.852;2023-07-20T21:35:28;0.90;;;0.40;;
29218;SDS011;16421;50.202;7.852;2023-07-20T21:40:31;0.90;;;0.52;;
29218;SDS011;16421;50.202;7.852;2023-07-20T21:45:38;0.77;;;0.60;;
29218;SDS011;16421;50.202;7.852;2023-07-20T21:50:46;0.77;;;0.40;;
29218;SDS011;16421;50.202;7.852;2023-07-20T21:55:49;0.93;;;0.55;;
29218;SDS011;16421;50.202;7.852;2023-07-20T22:00:54;0.50;;;0.50;;
29218;SDS011;16421;50.202;7.852;2023-07-20T22:06:01;1.42;;;0.60;;
29218;SDS011;16421;50.202;7.852;2023-07-20T22:11:05;0.65;;;0.52;;
29218;SDS011;16421;50.202;7.852;2023-07-20T22:16:10;2.05;;;0.50;;
29218;SDS011;16421;50.202;7.852;2023-07-20T22:21:13;1.67;;;0.60;;
29218;SDS011;16421;50.202;7.852;2023-07-20T22:26:16;1.02;;;0.50;;
29218;SDS011;16421;50.202;7.852;2023-07-20T22:31:22;1.58;;;0.45;;
29218;SDS011;16421;50.202;7.852;2023-07-20T22:36:25;2.33;;;0.50;;
29218;SDS011;16421;50.202;7.852;2023-07-20T22:41:28;1.73;;;0.52;;
29218;SDS011;16421;50.202;7.852;2023-07-20T22:46:33;1.02;;;0.50;;
29218;SDS011;16421;50.202;7.852;2023-07-20T22:51:37;0.70;;;0.70;;
29218;SDS011;16421;50.202;7.852;2023-07-20T22:56:40;4.80;;;0.70;;
29218;SDS011;16421;50.202;7.852;2023-07-20T23:01:45;1.50;;;0.40;;
29218;SDS011;16421;50.202;7.852;2023-07-20T23:06:49;0.60;;;0.57;;
29218;SDS011;16421;50.202;7.852;2023-07-20T23:11:53;1.15;;;0.70;;
29218;SDS011;16421;50.202;7.852;2023-07-20T23:16:58;0.60;;;0.40;;
29218;SDS011;16421;50.202;7.852;2023-07-20T23:22:01;3.55;;;0.52;;
29218;SDS011;16421;50.202;7.852;2023-07-20T23:27:07;2.45;;;0.52;;
29218;SDS011;16421;50.202;7.852;2023-07-20T23:32:12;0.75;;;0.50;;
29218;SDS011;16421;50.202;7.852;2023-07-20T23:37:16;0.65;;;0.50;;
29218;SDS011;16421;50.202;7.852;2023-07-20T23:42:20;0.57;;;0.40;;
29218;SDS011;16421;50.202;7.852;2023-07-20T23:47:25;0.80;;;0.60;;
29218;SDS011;16421;50.202;7.852;2023-07-20T23:52:28;2.53;;;0.88;;
29218;SDS011;16421;50.202;7.852;2023-07-20T23:57:35;0.70;;;0.50;;
